sensor_id;sensor_type;location;lat;lon;timestamp;P1;durP1;ratioP1;P2;durP2;ratioP2
15474;SDS011;7839;50.462;9.678;2022-07-06T00:03:21;2.28;;;1.40;;
15474;SDS011;7839;50.462;9.678;2022-07-06T00:10:01;1.20;;;1.20;;
15474;SDS011;7839;50.462;9.678;2022-07-06T00:16:41;1.40;;;1.30;;
15474;SDS011;7839;50.462;9.678;2022-07-06T00:23:22;1.10;;;1.10;;
15474;SDS011;7839;50.462;9.678;2022-07-06T00:30:02;1.17;;;1.08;;
15474;SDS011;7839;50.462;9.678;2022-07-06T00:36:42;1.30;;;1.08;;
15474;SDS011;7839;50.462;9.678;2022-07-06T00:43:22;0.95;;;0.95;;
15474;SDS011;7839;50.462;9.678;2022-07-06T00:50:03;0.85;;;0.85;;
15474;SDS011;7839;50.462;9.678;2022-07-06T00:56:55;0.80;;;0.80;;
15474;SDS011;7839;50.462;9.678;2022-07-06T01:03:35;0.90;;;0.90;;
15474;SDS011;7839;50.462;9.678;2022-07-06T01:10:17;0.93;;;0.93;;
15474;SDS011;7839;50.462;9.678;2022-07-06T01:16:59;0.82;;;0.82;;
15474;SDS011;7839;50.462;9.678;2022-07-06T01:23:40;0.90;;;0.90;;
15474;SDS011;7839;50.462;9.678;2022-07-06T01:30:21;0.45;;;0.45;;
15474;SDS011;7839;50.462;9.678;2022-07-06T01:37:01;0.73;;;0.63;;
15474;SDS011;7839;50.462;9.678;2022-07-06T01:43:41;0.60;;;0.60;;
15474;SDS011;7839;50.462;9.678;2022-07-06T01:50:22;0.60;;;0.60;;
15474;SDS011;7839;50.462;9.678;2022-07-06T01:57:02;0.43;;;0.43;;
15474;SDS011;7839;50.462;9.678;2022-07-06T02:03:43;0.50;;;0.50;;
15474;SDS011;7839;50.462;9.678;2022-07-06T02:10:23;0.52;;;0.52;;
15474;SDS011;7839;50.462;9.678;2022-07-06T02:17:03;2.53;;;0.57;;
15474;SDS011;7839;50.462;9.678;2022-07-06T02:23:44;0.50;;;0.50;;
15474;SDS011;7839;50.462;9.678;2022-07-06T02:30:24;0.80;;;0.80;;
15474;SDS011;7839;50.462;9.678;2022-07-06T02:37:04;0.55;;;0.55;;
15474;SDS011;7839;50.462;9.678;2022-07-06T02:43:44;0.40;;;0.40;;
15474;SDS011;7839;50.462;9.678;2022-07-06T02:50:25;0.47;;;0.47;;
15474;SDS011;7839;50.462;9.678;2022-07-06T02:57:05;0.57;;;0.40;;
15474;SDS011;7839;50.462;9.678;2022-07-06T03:03:46;0.30;;;0.30;;
15474;SDS011;7839;50.462;9.678;2022-07-06T03:10:27;0.50;;;0.50;;
15474;SDS011;7839;50.462;9.678;2022-07-06T03:17:07;0.50;;;0.50;;
15474;SDS011;7839;50.462;9.678;2022-07-06T03:23:47;0.57;;;0.57;;
15474;SDS011;7839;50.462;9.678;2022-07-06T03:30:27;0.20;;;0.20;;
15474;SDS011;7839;50.462;9.678;2022-07-06T03:37:08;0.50;;;0.35;;
15474;SDS011;7839;50.462;9.678;2022-07-06T03:43:48;0.40;;;0.40;;
15474;SDS011;7839;50.462;9.678;2022-07-06T03:50:28;1.10;;;0.70;;
15474;SDS011;7839;50.462;9.678;2022-07-06T03:57:08;0.50;;;0.50;;
15474;SDS011;7839;50.462;9.678;2022-07-06T04:03:49;0.30;;;0.30;;
15474;SDS011;7839;50.462;9.678;2022-07-06T04:10:29;0.40;;;0.40;;
15474;SDS011;7839;50.462;9.678;2022-07-06T04:17:09;0.55;;;0.50;;
15474;SDS011;7839;50.462;9.678;2022-07-06T04:24:08;0.40;;;0.40;;
15474;SDS011;7839;50.462;9.678;2022-07-06T04:30:48;0.20;;;0.20;;
15474;SDS011;7839;50.462;9.678;2022-07-06T04:37:28;0.40;;;0.40;;
15474;SDS011;7839;50.462;9.678;2022-07-06T04:44:09;0.45;;;0.45;;
15474;SDS011;7839;50.462;9.678;2022-07-06T04:50:49;0.30;;;0.30;;
15474;SDS011;7839;50.462;9.678;2022-07-06T04:57:29;0.60;;;0.50;;
15474;SDS011;7839;50.462;9.678;2022-07-06T05:04:09;0.70;;;0.68;;
15474;SDS011;7839;50.462;9.678;2022-07-06T05:10:50;0.40;;;0.40;;
15474;SDS011;7839;50.462;9.678;2022-07-06T05:17:31;2.63;;;1.65;;
15474;SDS011;7839;50.462;9.678;2022-07-06T05:24:12;1.00;;;1.00;;
15474;SDS011;7839;50.462;9.678;2022-07-06T05:30:52;2.00;;;1.23;;
15474;SDS011;7839;50.462;9.678;2022-07-06T05:37:32;0.53;;;0.53;;
15474;SDS011;7839;50.462;9.678;2022-07-06T05:44:13;2.77;;;1.63;;
15474;SDS011;7839;50.462;9.678;2022-07-06T05:50:54;3.70;;;1.60;;
15474;SDS011;7839;50.462;9.678;2022-07-06T05:57:34;2.33;;;1.70;;
15474;SDS011;7839;50.462;9.678;2022-07-06T06:04:14;1.63;;;1.53;;
15474;SDS011;7839;50.462;9.678;2022-07-06T06:10:54;2.40;;;1.70;;
15474;SDS011;7839;50.462;9.678;2022-07-06T06:17:35;3.35;;;1.65;;
15474;SDS011;7839;50.462;9.678;2022-07-06T06:24:15;2.73;;;1.53;;
15474;SDS011;7839;50.462;9.678;2022-07-06T06:30:55;8.67;;;3.57;;
15474;SDS011;7839;50.462;9.678;2022-07-06T06:37:36;2.50;;;1.50;;
15474;SDS011;7839;50.462;9.678;2022-07-06T06:44:16;2.03;;;1.50;;
15474;SDS011;7839;50.462;9.678;2022-07-06T06:50:57;4.63;;;1.67;;
15474;SDS011;7839;50.462;9.678;2022-07-06T06:57:37;2.00;;;1.50;;
15474;SDS011;7839;50.462;9.678;2022-07-06T07:04:18;3.13;;;1.90;;
15474;SDS011;7839;50.462;9.678;2022-07-06T07:10:58;3.73;;;1.80;;
15474;SDS011;7839;50.462;9.678;2022-07-06T07:17:39;3.03;;;1.37;;
15474;SDS011;7839;50.462;9.678;2022-07-06T07:24:19;2.00;;;1.23;;
15474;SDS011;7839;50.462;9.678;2022-07-06T07:30:59;5.07;;;1.57;;
15474;SDS011;7839;50.462;9.678;2022-07-06T07:37:39;4.17;;;1.80;;
15474;SDS011;7839;50.462;9.678;2022-07-06T07:44:20;3.33;;;1.40;;
15474;SDS011;7839;50.462;9.678;2022-07-06T07:51:00;2.40;;;1.60;;
15474;SDS011;7839;50.462;9.678;2022-07-06T07:57:40;1.60;;;1.10;;
15474;SDS011;7839;50.462;9.678;2022-07-06T08:04:21;2.57;;;1.60;;
15474;SDS011;7839;50.462;9.678;2022-07-06T08:11:01;1.60;;;1.10;;
15474;SDS011;7839;50.462;9.678;2022-07-06T08:17:41;1.93;;;1.30;;
15474;SDS011;7839;50.462;9.678;2022-07-06T08:24:21;4.43;;;1.43;;
15474;SDS011;7839;50.462;9.678;2022-07-06T08:31:02;2.57;;;1.53;;
15474;SDS011;7839;50.462;9.678;2022-07-06T08:37:42;3.53;;;1.50;;
15474;SDS011;7839;50.462;9.678;2022-07-06T08:44:23;2.43;;;1.43;;
15474;SDS011;7839;50.462;9.678;2022-07-06T08:51:06;1.60;;;1.50;;
15474;SDS011;7839;50.462;9.678;2022-07-06T08:57:46;2.63;;;1.10;;
15474;SDS011;7839;50.462;9.678;2022-07-06T09:04:26;2.37;;;1.50;;
15474;SDS011;7839;50.462;9.678;2022-07-06T09:11:07;4.47;;;2.00;;
15474;SDS011;7839;50.462;9.678;2022-07-06T09:17:48;1.47;;;1.37;;
15474;SDS011;7839;50.462;9.678;2022-07-06T09:24:28;2.47;;;1.60;;
15474;SDS011;7839;50.462;9.678;2022-07-06T09:31:09;2.40;;;1.23;;
15474;SDS011;7839;50.462;9.678;2022-07-06T09:44:48;1.40;;;1.30;;
15474;SDS011;7839;50.462;9.678;2022-07-06T09:51:32;2.13;;;1.67;;
15474;SDS011;7839;50.462;9.678;2022-07-06T09:58:15;2.10;;;1.30;;
15474;SDS011;7839;50.462;9.678;2022-07-06T10:04:55;2.13;;;1.13;;
15474;SDS011;7839;50.462;9.678;2022-07-06T10:11:57;1.53;;;1.23;;
15474;SDS011;7839;50.462;9.678;2022-07-06T10:18:36;2.03;;;1.30;;
15474;SDS011;7839;50.462;9.678;2022-07-06T10:25:17;1.77;;;1.33;;
15474;SDS011;7839;50.462;9.678;2022-07-06T10:31:58;1.50;;;1.23;;
15474;SDS011;7839;50.462;9.678;2022-07-06T10:38:39;1.50;;;1.40;;
15474;SDS011;7839;50.462;9.678;2022-07-06T10:52:09;2.60;;;1.10;;
15474;SDS011;7839;50.462;9.678;2022-07-06T10:58:50;2.03;;;1.20;;
15474;SDS011;7839;50.462;9.678;2022-07-06T11:05:40;2.03;;;1.20;;
15474;SDS011;7839;50.462;9.678;2022-07-06T11:12:20;3.70;;;1.30;;
15474;SDS011;7839;50.462;9.678;2022-07-06T11:19:01;1.33;;;0.73;;
15474;SDS011;7839;50.462;9.678;2022-07-06T11:25:42;1.50;;;0.93;;
15474;SDS011;7839;50.462;9.678;2022-07-06T11:32:23;1.93;;;1.00;;
15474;SDS011;7839;50.462;9.678;2022-07-06T11:39:03;2.60;;;1.00;;
15474;SDS011;7839;50.462;9.678;2022-07-06T11:45:45;2.17;;;1.00;;
15474;SDS011;7839;50.462;9.678;2022-07-06T11:52:25;2.43;;;1.20;;
15474;SDS011;7839;50.462;9.678;2022-07-06T11:59:06;2.00;;;1.33;;
15474;SDS011;7839;50.462;9.678;2022-07-06T12:05:47;1.63;;;1.10;;
15474;SDS011;7839;50.462;9.678;2022-07-06T12:12:27;1.40;;;1.30;;
15474;SDS011;7839;50.462;9.678;2022-07-06T12:19:07;2.57;;;1.13;;
15474;SDS011;7839;50.462;9.678;2022-07-06T12:25:48;5.10;;;1.37;;
15474;SDS011;7839;50.462;9.678;2022-07-06T12:32:33;2.10;;;1.10;;
15474;SDS011;7839;50.462;9.678;2022-07-06T12:39:19;1.63;;;1.10;;
15474;SDS011;7839;50.462;9.678;2022-07-06T12:46:46;1.43;;;1.23;;
15474;SDS011;7839;50.462;9.678;2022-07-06T12:53:02;1.17;;;0.90;;
15474;SDS011;7839;50.462;9.678;2022-07-06T12:59:44;2.80;;;0.80;;
15474;SDS011;7839;50.462;9.678;2022-07-06T13:06:32;1.70;;;0.87;;
15474;SDS011;7839;50.462;9.678;2022-07-06T13:13:12;1.60;;;1.00;;
15474;SDS011;7839;50.462;9.678;2022-07-06T13:19:52;1.10;;;1.07;;
15474;SDS011;7839;50.462;9.678;2022-07-06T13:26:33;1.30;;;1.20;;
15474;SDS011;7839;50.462;9.678;2022-07-06T13:33:13;1.27;;;0.80;;
15474;SDS011;7839;50.462;9.678;2022-07-06T13:39:53;1.80;;;1.13;;
15474;SDS011;7839;50.462;9.678;2022-07-06T13:46:34;1.33;;;0.90;;
15474;SDS011;7839;50.462;9.678;2022-07-06T13:53:14;3.93;;;1.00;;
15474;SDS011;7839;50.462;9.678;2022-07-06T13:59:54;1.37;;;0.70;;
15474;SDS011;7839;50.462;9.678;2022-07-06T14:06:35;1.83;;;0.90;;
15474;SDS011;7839;50.462;9.678;2022-07-06T14:13:16;1.70;;;0.80;;
15474;SDS011;7839;50.462;9.678;2022-07-06T14:19:56;2.00;;;0.97;;
15474;SDS011;7839;50.462;9.678;2022-07-06T14:26:36;2.37;;;0.60;;
15474;SDS011;7839;50.462;9.678;2022-07-06T14:33:17;1.00;;;0.90;;
15474;SDS011;7839;50.462;9.678;2022-07-06T14:39:59;2.50;;;0.83;;
15474;SDS011;7839;50.462;9.678;2022-07-06T14:46:39;1.13;;;0.70;;
15474;SDS011;7839;50.462;9.678;2022-07-06T14:53:19;1.47;;;0.90;;
15474;SDS011;7839;50.462;9.678;2022-07-06T14:59:59;1.50;;;0.70;;
15474;SDS011;7839;50.462;9.678;2022-07-06T15:06:40;2.00;;;0.70;;
15474;SDS011;7839;50.462;9.678;2022-07-06T15:13:20;2.50;;;0.77;;
15474;SDS011;7839;50.462;9.678;2022-07-06T15:20:00;1.47;;;0.73;;
15474;SDS011;7839;50.462;9.678;2022-07-06T15:26:40;0.93;;;0.70;;
15474;SDS011;7839;50.462;9.678;2022-07-06T15:33:21;2.25;;;0.90;;
15474;SDS011;7839;50.462;9.678;2022-07-06T15:40:02;0.63;;;0.63;;
15474;SDS011;7839;50.462;9.678;2022-07-06T15:46:43;4.07;;;0.80;;
15474;SDS011;7839;50.462;9.678;2022-07-06T15:53:23;0.93;;;0.87;;
15474;SDS011;7839;50.462;9.678;2022-07-06T16:00:04;5.67;;;0.97;;
15474;SDS011;7839;50.462;9.678;2022-07-06T16:06:44;0.97;;;0.80;;
15474;SDS011;7839;50.462;9.678;2022-07-06T16:13:24;0.80;;;0.80;;
15474;SDS011;7839;50.462;9.678;2022-07-06T16:20:05;3.07;;;0.67;;
15474;SDS011;7839;50.462;9.678;2022-07-06T16:26:45;1.57;;;0.70;;
15474;SDS011;7839;50.462;9.678;2022-07-06T16:33:25;1.13;;;1.10;;
15474;SDS011;7839;50.462;9.678;2022-07-06T16:40:05;1.70;;;0.60;;
15474;SDS011;7839;50.462;9.678;2022-07-06T16:46:46;1.40;;;0.87;;
15474;SDS011;7839;50.462;9.678;2022-07-06T16:53:26;5.77;;;1.10;;
15474;SDS011;7839;50.462;9.678;2022-07-06T17:00:06;2.20;;;0.70;;
15474;SDS011;7839;50.462;9.678;2022-07-06T17:06:47;2.17;;;0.80;;
15474;SDS011;7839;50.462;9.678;2022-07-06T17:13:27;1.17;;;0.70;;
15474;SDS011;7839;50.462;9.678;2022-07-06T17:20:10;1.83;;;0.60;;
15474;SDS011;7839;50.462;9.678;2022-07-06T17:26:50;1.53;;;0.70;;
15474;SDS011;7839;50.462;9.678;2022-07-06T17:33:30;1.40;;;0.70;;
15474;SDS011;7839;50.462;9.678;2022-07-06T17:40:10;2.20;;;0.87;;
15474;SDS011;7839;50.462;9.678;2022-07-06T17:46:51;0.87;;;0.57;;
15474;SDS011;7839;50.462;9.678;2022-07-06T17:53:31;3.13;;;0.87;;
15474;SDS011;7839;50.462;9.678;2022-07-06T18:00:11;2.13;;;0.80;;
15474;SDS011;7839;50.462;9.678;2022-07-06T18:06:52;1.27;;;0.40;;
15474;SDS011;7839;50.462;9.678;2022-07-06T18:13:32;3.50;;;0.90;;
15474;SDS011;7839;50.462;9.678;2022-07-06T18:20:13;4.13;;;1.47;;
15474;SDS011;7839;50.462;9.678;2022-07-06T18:26:54;1.47;;;0.73;;
15474;SDS011;7839;50.462;9.678;2022-07-06T18:33:34;1.53;;;0.80;;
15474;SDS011;7839;50.462;9.678;2022-07-06T18:40:15;1.40;;;0.70;;
15474;SDS011;7839;50.462;9.678;2022-07-06T18:46:55;1.27;;;0.70;;
15474;SDS011;7839;50.462;9.678;2022-07-06T18:53:36;2.10;;;0.70;;
15474;SDS011;7839;50.462;9.678;2022-07-06T19:00:16;1.33;;;0.70;;
15474;SDS011;7839;50.462;9.678;2022-07-06T19:06:56;0.67;;;0.53;;
15474;SDS011;7839;50.462;9.678;2022-07-06T19:13:37;1.20;;;0.70;;
15474;SDS011;7839;50.462;9.678;2022-07-06T19:20:19;1.00;;;0.63;;
15474;SDS011;7839;50.462;9.678;2022-07-06T19:27:00;2.03;;;0.70;;
15474;SDS011;7839;50.462;9.678;2022-07-06T19:33:41;0.50;;;0.50;;
15474;SDS011;7839;50.462;9.678;2022-07-06T19:40:21;0.63;;;0.60;;
15474;SDS011;7839;50.462;9.678;2022-07-06T19:47:03;1.07;;;0.73;;
15474;SDS011;7839;50.462;9.678;2022-07-06T19:53:43;0.50;;;0.50;;
15474;SDS011;7839;50.462;9.678;2022-07-06T20:00:24;0.55;;;0.55;;
15474;SDS011;7839;50.462;9.678;2022-07-06T20:07:04;0.60;;;0.52;;
15474;SDS011;7839;50.462;9.678;2022-07-06T20:13:44;0.30;;;0.30;;
15474;SDS011;7839;50.462;9.678;2022-07-06T20:20:24;0.50;;;0.50;;
15474;SDS011;7839;50.462;9.678;2022-07-06T20:27:05;1.42;;;0.52;;
15474;SDS011;7839;50.462;9.678;2022-07-06T20:33:45;0.70;;;0.70;;
15474;SDS011;7839;50.462;9.678;2022-07-06T20:40:25;1.23;;;0.60;;
15474;SDS011;7839;50.462;9.678;2022-07-06T20:47:06;1.05;;;0.73;;
15474;SDS011;7839;50.462;9.678;2022-07-06T20:53:46;0.70;;;0.55;;
15474;SDS011;7839;50.462;9.678;2022-07-06T21:00:26;0.60;;;0.60;;
15474;SDS011;7839;50.462;9.678;2022-07-06T21:07:07;0.75;;;0.50;;
15474;SDS011;7839;50.462;9.678;2022-07-06T21:13:47;0.60;;;0.60;;
15474;SDS011;7839;50.462;9.678;2022-07-06T21:20:27;0.47;;;0.47;;
15474;SDS011;7839;50.462;9.678;2022-07-06T21:27:07;0.50;;;0.50;;
15474;SDS011;7839;50.462;9.678;2022-07-06T21:33:47;0.52;;;0.47;;
15474;SDS011;7839;50.462;9.678;2022-07-06T21:40:27;0.70;;;0.70;;
15474;SDS011;7839;50.462;9.678;2022-07-06T21:47:08;1.02;;;0.50;;
15474;SDS011;7839;50.462;9.678;2022-07-06T21:53:48;0.85;;;0.82;;
15474;SDS011;7839;50.462;9.678;2022-07-06T22:00:28;0.55;;;0.55;;
15474;SDS011;7839;50.462;9.678;2022-07-06T22:07:09;0.70;;;0.70;;
15474;SDS011;7839;50.462;9.678;2022-07-06T22:13:49;0.30;;;0.30;;
15474;SDS011;7839;50.462;9.678;2022-07-06T22:20:29;0.50;;;0.50;;
15474;SDS011;7839;50.462;9.678;2022-07-06T22:27:09;0.57;;;0.40;;
15474;SDS011;7839;50.462;9.678;2022-07-06T22:33:50;0.20;;;0.20;;
15474;SDS011;7839;50.462;9.678;2022-07-06T22:40:30;0.63;;;0.63;;
15474;SDS011;7839;50.462;9.678;2022-07-06T22:47:29;0.45;;;0.45;;
15474;SDS011;7839;50.462;9.678;2022-07-06T22:54:10;0.40;;;0.40;;
15474;SDS011;7839;50.462;9.678;2022-07-06T23:00:50;0.35;;;0.35;;
15474;SDS011;7839;50.462;9.678;2022-07-06T23:07:30;1.35;;;0.40;;
15474;SDS011;7839;50.462;9.678;2022-07-06T23:14:11;0.30;;;0.30;;
15474;SDS011;7839;50.462;9.678;2022-07-06T23:20:51;0.30;;;0.30;;
15474;SDS011;7839;50.462;9.678;2022-07-06T23:27:31;0.40;;;0.35;;
15474;SDS011;7839;50.462;9.678;2022-07-06T23:34:11;0.30;;;0.30;;
15474;SDS011;7839;50.462;9.678;2022-07-06T23:40:52;0.40;;;0.40;;
15474;SDS011;7839;50.462;9.678;2022-07-06T23:47:32;0.20;;;0.20;;
15474;SDS011;7839;50.462;9.678;2022-07-06T23:54:13;2.80;;;0.40;;
